createdAt,value
2022-10-31T00:01:02.195Z,101830.03
2022-10-31T00:03:28.801Z,101825.06
2022-10-31T00:05:55.281Z,101833.16
2022-10-31T00:08:21.735Z,101834.19
2022-10-31T00:10:48.216Z,101826.50
2022-10-31T00:13:15.290Z,101820.41
2022-10-31T00:15:42.525Z,101837.34
2022-10-31T00:18:10.841Z,101832.19
2022-10-31T00:20:38.105Z,101826.31
2022-10-31T00:23:06.318Z,101831.69
2022-10-31T00:25:38.199Z,101830.13
2022-10-31T00:28:07.179Z,101826.88
2022-10-31T00:30:34.880Z,101836.75
2022-10-31T00:33:01.868Z,101837.72
2022-10-31T00:35:28.584Z,101836.84
2022-10-31T00:37:55.077Z,101834.22
2022-10-31T00:40:21.522Z,101839.44
2022-10-31T00:42:47.987Z,101837.69
2022-10-31T00:45:14.593Z,101838.56
2022-10-31T00:47:41.051Z,101832.78
2022-10-31T00:50:08.502Z,101831.28
2022-10-31T00:52:35.332Z,101847.94
2022-10-31T00:55:01.809Z,101830.47
2022-10-31T00:57:28.250Z,101831.28
2022-10-31T00:59:55.154Z,101838.47
2022-10-31T01:02:22.407Z,101837.84
2022-10-31T01:04:49.454Z,101845.69
2022-10-31T01:07:15.965Z,101841.19
2022-10-31T01:09:42.442Z,101835.00
2022-10-31T01:12:09.610Z,101838.91
2022-10-31T01:14:36.115Z,101837.16
2022-10-31T01:17:02.624Z,101835.88
2022-10-31T01:19:29.196Z,101853.50
2022-10-31T01:21:56.419Z,101850.72
2022-10-31T01:24:23.137Z,101849.72
2022-10-31T01:26:49.642Z,101849.78
2022-10-31T01:29:16.148Z,101847.19
2022-10-31T01:31:42.640Z,101836.72
2022-10-31T01:34:17.730Z,101832.34
2022-10-31T01:36:46.119Z,101822.13
2022-10-31T01:39:15.019Z,101826.66
2022-10-31T01:41:47.465Z,101826.69
2022-10-31T01:44:16.833Z,101833.84
2022-10-31T01:46:45.926Z,101836.69
2022-10-31T01:49:25.109Z,101831.84
2022-10-31T01:51:57.540Z,101824.97
2022-10-31T01:54:28.001Z,101828.63
2022-10-31T01:56:57.444Z,101827.44
2022-10-31T01:59:27.998Z,101829.38
2022-10-31T02:01:55.088Z,101826.09
2022-10-31T02:04:24.802Z,101826.22
2022-10-31T02:07:06.528Z,101827.38
2022-10-31T02:09:35.235Z,101831.06
2022-10-31T02:12:01.987Z,101830.97
2022-10-31T02:14:31.528Z,101836.81
2022-10-31T02:16:58.757Z,101828.66
2022-10-31T02:19:35.666Z,101825.44
2022-10-31T02:22:15.862Z,101835.97
2022-10-31T02:25:04.452Z,101831.91
2022-10-31T02:27:55.734Z,101823.41
2022-10-31T02:30:26.909Z,101828.56
2022-10-31T02:33:24.460Z,101825.22
2022-10-31T02:36:07.161Z,101827.84
2022-10-31T02:38:43.185Z,101827.72
2022-10-31T02:41:38.682Z,101838.09
2022-10-31T02:44:31.071Z,101828.41
2022-10-31T02:47:06.427Z,101825.97
2022-10-31T02:49:45.097Z,101824.81
2022-10-31T02:52:21.109Z,101835.34
2022-10-31T02:54:49.442Z,101822.28
2022-10-31T02:57:18.814Z,101827.41
2022-10-31T02:59:52.410Z,101829.97
2022-10-31T03:02:51.956Z,101822.06
2022-10-31T03:05:40.276Z,101819.34
2022-10-31T03:08:41.981Z,101825.34
2022-10-31T03:11:10.922Z,101818.31
2022-10-31T03:13:55.595Z,101824.50
2022-10-31T03:16:29.967Z,101823.53
2022-10-31T03:19:07.646Z,101823.66
2022-10-31T03:21:49.428Z,101824.59
2022-10-31T03:24:16.557Z,101824.91
2022-10-31T03:26:51.217Z,101834.50
2022-10-31T03:29:24.031Z,101830.41
2022-10-31T03:32:04.251Z,101829.75
2022-10-31T03:34:33.035Z,101829.97
2022-10-31T03:37:04.443Z,101838.72
2022-10-31T03:39:32.717Z,101835.19
2022-10-31T03:42:16.033Z,101833.41
2022-10-31T03:44:48.315Z,101833.84
2022-10-31T03:47:15.209Z,101838.56
2022-10-31T03:49:42.200Z,101829.19
2022-10-31T03:52:15.059Z,101836.91
2022-10-31T03:54:55.746Z,101838.59
2022-10-31T03:57:46.117Z,101845.91
2022-10-31T04:00:15.757Z,101839.06
2022-10-31T04:03:01.874Z,101832.03
2022-10-31T04:05:30.732Z,101824.63
2022-10-31T04:07:59.814Z,101828.06
2022-10-31T04:10:31.997Z,101831.25
2022-10-31T04:13:05.959Z,101832.81
2022-10-31T04:15:33.339Z,101816.09
2022-10-31T04:18:01.605Z,101830.75
2022-10-31T04:20:37.251Z,101817.28
2022-10-31T04:23:05.049Z,101824.47
2022-10-31T04:25:31.542Z,101815.69
2022-10-31T04:27:58.459Z,101812.06
2022-10-31T04:30:25.239Z,101814.34
2022-10-31T04:32:51.781Z,101819.25
2022-10-31T04:35:18.341Z,101814.13
2022-10-31T04:37:44.813Z,101823.06
2022-10-31T04:40:11.814Z,101818.69
2022-10-31T04:42:38.374Z,101808.84
2022-10-31T04:45:05.420Z,101812.56
2022-10-31T04:47:34.086Z,101818.84
2022-10-31T04:50:00.887Z,101815.38
2022-10-31T04:52:27.820Z,101824.66
2022-10-31T04:54:54.271Z,101822.72
2022-10-31T04:57:20.767Z,101821.72
2022-10-31T04:59:47.240Z,101824.19
2022-10-31T05:02:13.866Z,101814.59
2022-10-31T05:04:40.556Z,101807.13
2022-10-31T05:07:07.069Z,101802.25
2022-10-31T05:09:33.651Z,101802.47
2022-10-31T05:12:00.263Z,101804.69
2022-10-31T05:14:26.719Z,101794.38
2022-10-31T05:16:53.169Z,101799.88
2022-10-31T05:19:19.812Z,101795.78
2022-10-31T05:21:46.271Z,101785.38
2022-10-31T05:24:12.753Z,101781.91
2022-10-31T05:26:39.536Z,101781.06
2022-10-31T05:29:05.995Z,101783.88
2022-10-31T05:31:32.432Z,101774.28
2022-10-31T05:33:59.038Z,101779.25
2022-10-31T05:36:25.534Z,101778.13
2022-10-31T05:38:51.998Z,101787.53
2022-10-31T05:41:18.778Z,101788.34
2022-10-31T05:43:46.313Z,101791.69
2022-10-31T05:46:12.741Z,101791.63
2022-10-31T05:48:39.492Z,101796.75
2022-10-31T05:51:06.134Z,101794.25
2022-10-31T05:53:32.614Z,101788.97
2022-10-31T05:55:59.094Z,101791.56
2022-10-31T05:58:25.578Z,101787.19
2022-10-31T06:00:52.061Z,101782.81
2022-10-31T06:03:18.802Z,101780.50
2022-10-31T06:05:49.236Z,101782.66
2022-10-31T06:08:18.958Z,101786.47
2022-10-31T06:10:45.582Z,101779.47
2022-10-31T06:13:12.068Z,101781.97
2022-10-31T06:15:38.561Z,101773.09
2022-10-31T06:18:06.704Z,101770.53
2022-10-31T06:20:34.576Z,101774.34
2022-10-31T06:23:02.264Z,101778.78
2022-10-31T06:25:29.393Z,101782.97
2022-10-31T06:27:56.956Z,101781.97
2022-10-31T06:30:23.717Z,101782.31
2022-10-31T06:32:50.906Z,101777.28
2022-10-31T06:35:17.892Z,101783.41
2022-10-31T06:37:51.501Z,101788.41
2022-10-31T06:40:18.216Z,101785.56
2022-10-31T06:42:44.949Z,101789.00
2022-10-31T06:45:11.436Z,101791.41
2022-10-31T06:47:50.753Z,101786.91
2022-10-31T06:50:24.507Z,101787.06
2022-10-31T06:52:52.782Z,101789.00
2022-10-31T06:55:21.622Z,101787.50
2022-10-31T06:57:57.684Z,101793.72
2022-10-31T07:00:30.242Z,101802.25
2022-10-31T07:03:05.949Z,101803.72
2022-10-31T07:05:32.598Z,101809.66
2022-10-31T07:08:01.974Z,101798.97
2022-10-31T07:10:32.158Z,101794.66
2022-10-31T07:13:03.609Z,101794.84
2022-10-31T07:15:33.573Z,101805.44
2022-10-31T07:18:02.349Z,101804.53
2022-10-31T07:20:29.945Z,101802.81
2022-10-31T07:22:56.605Z,101797.72
2022-10-31T07:25:23.442Z,101796.97
2022-10-31T07:27:50.047Z,101794.22
2022-10-31T07:30:19.818Z,101796.69
2022-10-31T07:32:50.947Z,101801.75
2022-10-31T07:35:22.981Z,101805.91
2022-10-31T07:44:15.275Z,101793.72
2022-10-31T07:46:42.885Z,101800.59
2022-10-31T07:49:09.319Z,101804.72
2022-10-31T07:51:35.761Z,101818.28
2022-10-31T07:54:02.285Z,101823.97
2022-10-31T07:56:28.809Z,101807.25
2022-10-31T07:58:55.320Z,101805.38
2022-10-31T08:01:21.839Z,101814.91
2022-10-31T08:03:48.359Z,101813.19
2022-10-31T08:06:14.829Z,101811.38
2022-10-31T08:08:43.908Z,101814.75
2022-10-31T08:11:10.471Z,101812.97
2022-10-31T08:13:37.015Z,101814.81
2022-10-31T08:16:05.405Z,101817.44
2022-10-31T08:18:32.050Z,101818.06
2022-10-31T08:20:58.562Z,101810.94
2022-10-31T08:23:25.141Z,101809.78
2022-10-31T08:25:51.710Z,101813.06
2022-10-31T08:28:18.196Z,101805.91
2022-10-31T08:30:44.706Z,101809.13
2022-10-31T08:33:19.040Z,101798.31
2022-10-31T08:35:46.142Z,101808.53
2022-10-31T08:38:13.679Z,101808.22
2022-10-31T08:40:40.512Z,101798.47
2022-10-31T08:43:12.263Z,101794.88
2022-10-31T08:45:38.787Z,101792.16
2022-10-31T08:48:07.555Z,101793.63
2022-10-31T08:50:35.736Z,101787.47
2022-10-31T08:53:05.987Z,101786.41
2022-10-31T08:55:37.021Z,101782.88
2022-10-31T08:58:05.629Z,101782.63
2022-10-31T09:00:33.207Z,101786.84
2022-10-31T09:03:01.910Z,101779.84
2022-10-31T09:05:29.068Z,101786.69
2022-10-31T09:08:00.703Z,101781.22
2022-10-31T09:10:29.072Z,101774.75
2022-10-31T09:13:00.447Z,101777.19
2022-10-31T09:15:28.535Z,101763.97
2022-10-31T09:17:55.394Z,101771.69
2022-10-31T09:20:21.945Z,101761.09
2022-10-31T09:22:48.526Z,101760.16
2022-10-31T09:25:15.236Z,101756.53
2022-10-31T09:27:41.733Z,101755.59
2022-10-31T09:30:08.766Z,101754.66
2022-10-31T09:32:35.261Z,101756.06
2022-10-31T09:35:01.923Z,101752.28
2022-10-31T09:37:28.889Z,101748.50
2022-10-31T09:39:55.455Z,101736.63
2022-10-31T09:43:03.375Z,101736.34
2022-10-31T09:45:50.698Z,101730.84
2022-10-31T09:48:29.097Z,101723.63
2022-10-31T09:51:09.886Z,101718.91
2022-10-31T09:53:55.116Z,101721.91
2022-10-31T09:56:24.389Z,101712.78
2022-10-31T09:59:02.619Z,101706.88
2022-10-31T10:01:29.232Z,101704.31
2022-10-31T10:04:01.900Z,101709.25
2022-10-31T10:06:36.674Z,101694.94
2022-10-31T10:09:03.304Z,101697.00
2022-10-31T10:11:51.684Z,101696.25
2022-10-31T10:14:39.692Z,101697.34
2022-10-31T10:17:27.595Z,101693.78
2022-10-31T10:19:59.789Z,101692.84
2022-10-31T10:22:39.183Z,101695.66
2022-10-31T10:25:22.537Z,101699.75
2022-10-31T10:28:21.016Z,101697.13
2022-10-31T10:30:49.821Z,101693.16
2022-10-31T10:33:24.150Z,101685.00
2022-10-31T10:35:56.416Z,101687.53
2022-10-31T10:38:44.287Z,101675.56
2022-10-31T10:41:18.485Z,101675.31
2022-10-31T10:47:11.065Z,101655.53
2022-10-31T10:49:38.174Z,101652.72
2022-10-31T10:52:35.322Z,101641.84
2022-10-31T10:55:21.270Z,101633.56
2022-10-31T10:57:57.194Z,101638.06
2022-10-31T11:00:25.411Z,101634.75
2022-10-31T11:02:52.810Z,101630.69
2022-10-31T11:05:46.006Z,101614.41
2022-10-31T11:08:27.744Z,101604.41
2022-10-31T11:11:05.113Z,101588.44
2022-10-31T11:13:33.653Z,101580.50
2022-10-31T11:16:12.839Z,101587.44
2022-10-31T11:18:43.939Z,101585.75
2022-10-31T11:21:21.959Z,101583.69
2022-10-31T11:23:48.463Z,101584.19
2022-10-31T11:26:21.875Z,101583.19
2022-10-31T11:29:26.639Z,101589.28
2022-10-31T11:31:56.288Z,101587.13
2022-10-31T11:34:30.971Z,101592.09
2022-10-31T11:37:04.250Z,101586.31
2022-10-31T11:39:31.168Z,101572.03
2022-10-31T11:42:06.333Z,101568.47
2022-10-31T11:44:35.604Z,101560.53
2022-10-31T11:47:05.706Z,101566.31
2022-10-31T11:49:37.459Z,101556.47
2022-10-31T11:52:43.138Z,101561.31
2022-10-31T11:55:12.485Z,101560.53
2022-10-31T11:57:53.284Z,101548.06
2022-10-31T12:00:38.673Z,101556.78
2022-10-31T12:03:27.875Z,101555.38
2022-10-31T12:06:06.230Z,101531.53
2022-10-31T12:08:35.958Z,101518.97
2022-10-31T12:11:08.624Z,101523.19
2022-10-31T12:13:40.571Z,101521.19
2022-10-31T12:16:30.706Z,101521.56
2022-10-31T12:19:17.281Z,101508.50
2022-10-31T12:22:05.432Z,101506.53
2022-10-31T12:24:50.149Z,101499.13
2022-10-31T12:27:39.045Z,101497.81
2022-10-31T12:30:21.435Z,101492.06
2022-10-31T12:33:22.899Z,101482.94
2022-10-31T12:36:17.216Z,101475.56
2022-10-31T12:39:02.133Z,101471.19
2022-10-31T12:41:59.246Z,101462.91
2022-10-31T12:44:41.312Z,101451.47
2022-10-31T12:47:26.201Z,101440.53
2022-10-31T12:50:03.158Z,101437.81
2022-10-31T12:52:51.368Z,101436.19
2022-10-31T12:55:48.354Z,101429.88
2022-10-31T12:58:48.398Z,101424.91
2022-10-31T13:01:38.258Z,101414.81
2022-10-31T13:04:24.989Z,101411.22
2022-10-31T13:06:59.293Z,101397.59
2022-10-31T13:09:35.005Z,101385.38
2022-10-31T13:12:16.341Z,101377.69
2022-10-31T13:14:48.575Z,101372.09
2022-10-31T13:17:31.303Z,101363.78
2022-10-31T13:20:14.554Z,101360.72
2022-10-31T13:22:45.057Z,101352.28
2022-10-31T13:25:27.417Z,101345.31
2022-10-31T13:28:04.373Z,101337.00
2022-10-31T13:30:35.642Z,101327.13
2022-10-31T13:33:38.802Z,101315.22
2022-10-31T13:36:25.477Z,101314.28
2022-10-31T13:39:04.138Z,101315.78
2022-10-31T13:41:49.341Z,101317.06
2022-10-31T13:44:28.683Z,101321.78
2022-10-31T13:46:57.689Z,101327.06
2022-10-31T13:49:39.460Z,101327.28
2022-10-31T13:52:27.144Z,101325.47
2022-10-31T13:54:57.904Z,101326.75
2022-10-31T13:57:43.359Z,101317.28
2022-10-31T14:00:21.798Z,101310.63
2022-10-31T14:02:52.882Z,101300.09
2022-10-31T14:05:25.361Z,101284.09
2022-10-31T14:07:54.018Z,101278.50
2022-10-31T14:10:29.900Z,101272.94
2022-10-31T14:13:09.514Z,101270.78
2022-10-31T14:15:39.243Z,101270.78
2022-10-31T14:18:27.040Z,101268.28
2022-10-31T14:20:53.943Z,101267.44
2022-10-31T14:23:36.123Z,101266.81
2022-10-31T14:26:28.153Z,101267.66
2022-10-31T14:29:00.620Z,101262.41
2022-10-31T14:31:40.855Z,101254.06
2022-10-31T14:34:10.064Z,101246.16
2022-10-31T14:36:52.081Z,101241.63
2022-10-31T14:39:32.780Z,101243.31
2022-10-31T14:42:14.969Z,101239.19
2022-10-31T14:45:08.057Z,101230.38
2022-10-31T14:47:46.626Z,101223.38
2022-10-31T14:50:41.917Z,101222.81
2022-10-31T14:53:16.594Z,101227.47
2022-10-31T14:55:48.357Z,101210.59
2022-10-31T14:58:23.204Z,101209.56
2022-10-31T15:00:55.144Z,101212.50
2022-10-31T15:03:57.444Z,101202.28
2022-10-31T15:06:45.898Z,101194.31
2022-10-31T15:09:27.462Z,101191.88
2022-10-31T15:11:54.202Z,101187.03
2022-10-31T15:14:27.115Z,101180.91
2022-10-31T15:16:53.787Z,101183.25
2022-10-31T15:19:28.279Z,101182.19
2022-10-31T15:21:57.150Z,101176.44
2022-10-31T15:24:31.011Z,101181.38
2022-10-31T15:27:03.805Z,101169.50
2022-10-31T15:29:31.916Z,101171.47
2022-10-31T15:32:18.856Z,101174.44
2022-10-31T15:34:46.753Z,101171.38
2022-10-31T15:37:15.949Z,101168.31
2022-10-31T15:39:43.849Z,101162.41
2022-10-31T15:42:19.938Z,101158.53
2022-10-31T15:44:56.386Z,101155.91
2022-10-31T15:47:25.454Z,101152.09
2022-10-31T15:49:56.842Z,101158.47
2022-10-31T15:52:41.181Z,101147.63
2022-10-31T15:55:11.518Z,101152.44
2022-10-31T15:57:44.844Z,101144.97
2022-10-31T16:00:31.549Z,101139.00
2022-10-31T16:03:05.354Z,101135.09
2022-10-31T16:05:44.437Z,101129.22
2022-10-31T16:08:29.429Z,101122.75
2022-10-31T16:10:57.865Z,101134.41
2022-10-31T16:13:31.874Z,101122.41
2022-10-31T16:16:33.613Z,101121.91
2022-10-31T16:18:51.827Z,101122.09
2022-10-31T16:21:26.458Z,101118.72
2022-10-31T16:23:58.403Z,101116.22
2022-10-31T16:26:25.767Z,101119.84
2022-10-31T16:29:04.763Z,101122.47
2022-10-31T16:31:39.142Z,101124.38
2022-10-31T16:34:14.564Z,101124.38
2022-10-31T16:36:41.283Z,101116.50
2022-10-31T16:39:08.589Z,101119.34
2022-10-31T16:41:43.125Z,101116.88
2022-10-31T16:44:23.315Z,101118.56
2022-10-31T16:47:09.276Z,101115.50
2022-10-31T16:49:35.808Z,101116.34
2022-10-31T16:52:02.478Z,101116.81
2022-10-31T16:54:30.236Z,101110.34
2022-10-31T16:56:58.418Z,101113.56
2022-10-31T16:59:25.068Z,101111.50
2022-10-31T17:01:51.691Z,101113.75
2022-10-31T17:04:18.713Z,101119.59
2022-10-31T17:06:45.218Z,101116.50
2022-10-31T17:09:11.949Z,101112.31
2022-10-31T17:11:49.196Z,101109.56
2022-10-31T17:14:17.402Z,101107.22
2022-10-31T17:16:44.331Z,101109.31
2022-10-31T17:19:11.920Z,101096.38
2022-10-31T17:21:38.788Z,101102.78
2022-10-31T17:24:13.680Z,101096.88
2022-10-31T17:26:40.741Z,101096.03
2022-10-31T17:29:07.561Z,101096.22
2022-10-31T17:31:37.229Z,101090.22
2022-10-31T17:34:05.359Z,101095.34
2022-10-31T17:36:33.518Z,101089.47
2022-10-31T17:39:05.565Z,101084.44
2022-10-31T17:41:32.141Z,101080.88
2022-10-31T17:43:59.631Z,101078.16
2022-10-31T17:46:26.526Z,101079.00
2022-10-31T17:48:53.182Z,101081.59
2022-10-31T17:51:19.796Z,101068.28
2022-10-31T17:53:46.295Z,101075.25
2022-10-31T17:56:12.868Z,101064.56
2022-10-31T17:58:39.459Z,101065.13
2022-10-31T18:01:11.767Z,101068.47
2022-10-31T18:03:39.338Z,101069.22
2022-10-31T18:06:06.122Z,101074.09
2022-10-31T18:08:35.107Z,101066.09
2022-10-31T18:11:12.979Z,101054.59
2022-10-31T18:13:39.643Z,101054.59
2022-10-31T18:16:14.912Z,101051.78
2022-10-31T18:18:41.479Z,101048.97
2022-10-31T18:21:08.045Z,101051.50
2022-10-31T18:23:34.815Z,101050.53
2022-10-31T18:26:01.553Z,101049.50
2022-10-31T18:28:28.032Z,101052.78
2022-10-31T18:30:54.521Z,101047.31
2022-10-31T18:33:21.236Z,101050.72
2022-10-31T18:35:47.820Z,101042.06
2022-10-31T18:38:14.299Z,101049.94
2022-10-31T18:40:41.569Z,101048.09
2022-10-31T18:43:08.179Z,101041.06
2022-10-31T18:45:46.599Z,101032.88
2022-10-31T18:48:16.268Z,101043.56
2022-10-31T18:50:43.643Z,101035.59
2022-10-31T18:53:10.258Z,101024.09
2022-10-31T18:55:44.061Z,101031.03
2022-10-31T18:58:14.043Z,101024.09
2022-10-31T19:00:40.630Z,101018.06
2022-10-31T19:03:07.185Z,101022.47
2022-10-31T19:05:33.812Z,101017.22
2022-10-31T19:08:00.293Z,101017.13
2022-10-31T19:10:26.878Z,101010.41
2022-10-31T19:12:53.948Z,101012.94
2022-10-31T19:15:20.601Z,101007.69
2022-10-31T19:17:47.275Z,101002.63
2022-10-31T19:20:14.236Z,101004.72
2022-10-31T19:22:40.773Z,101001.44
2022-10-31T19:25:10.340Z,101005.94
2022-10-31T19:27:38.153Z,101006.56
2022-10-31T19:30:05.710Z,101006.78
2022-10-31T19:32:32.209Z,101000.69
2022-10-31T19:34:58.936Z,100999.31
2022-10-31T19:37:25.580Z,100998.47
2022-10-31T19:39:52.680Z,101000.47
2022-10-31T19:42:19.259Z,101002.53
2022-10-31T19:44:45.855Z,100998.13
2022-10-31T19:47:12.468Z,101004.41
2022-10-31T19:49:38.942Z,101004.50
2022-10-31T19:52:05.465Z,100988.88
2022-10-31T19:54:32.199Z,100986.34
2022-10-31T19:56:58.703Z,100987.41
2022-10-31T19:59:26.336Z,100988.41
2022-10-31T20:01:53.029Z,100988.63
2022-10-31T20:04:19.637Z,100991.34
2022-10-31T20:06:46.801Z,100991.34
2022-10-31T20:09:14.825Z,100997.59
2022-10-31T20:11:43.227Z,100990.88
2022-10-31T20:14:12.759Z,100986.66
2022-10-31T20:16:39.856Z,100977.31
2022-10-31T20:19:06.663Z,100973.00
2022-10-31T20:21:38.398Z,100977.41
2022-10-31T20:24:08.416Z,100973.00
2022-10-31T20:26:35.531Z,100970.47
2022-10-31T20:29:03.317Z,100962.50
2022-10-31T20:31:33.856Z,100962.50
2022-10-31T20:34:00.692Z,100962.63
2022-10-31T20:36:29.543Z,100954.56
2022-10-31T20:38:56.122Z,100949.41
2022-10-31T20:41:22.695Z,100949.13
2022-10-31T20:43:49.370Z,100942.75
2022-10-31T20:46:18.819Z,100939.31
2022-10-31T20:48:46.106Z,100930.50
2022-10-31T20:53:42.715Z,100929.44
2022-10-31T20:56:13.870Z,100933.66
2022-10-31T20:58:41.657Z,100927.25
2022-10-31T21:01:12.198Z,100920.34
2022-10-31T21:03:38.864Z,100916.03
2022-10-31T21:06:05.711Z,100917.50
2022-10-31T21:08:33.188Z,100911.25
2022-10-31T21:11:01.057Z,100903.28
2022-10-31T21:13:28.553Z,100899.69
2022-10-31T21:16:02.466Z,100909.25
2022-10-31T21:18:29.773Z,100909.25
2022-10-31T21:20:56.568Z,100902.44
2022-10-31T21:23:23.892Z,100908.31
2022-10-31T21:25:50.518Z,100911.47
2022-10-31T21:28:17.525Z,100903.50
2022-10-31T21:30:46.455Z,100903.41
2022-10-31T21:33:13.713Z,100897.22
2022-10-31T21:35:40.307Z,100895.56
2022-10-31T21:38:06.919Z,100896.38
2022-10-31T21:40:33.547Z,100877.91
2022-10-31T21:43:00.456Z,100881.94
2022-10-31T21:45:27.155Z,100876.69
2022-10-31T21:47:53.620Z,100874.97
2022-10-31T21:50:20.362Z,100873.13
2022-10-31T21:52:46.866Z,100867.22
2022-10-31T21:55:13.415Z,100869.84
2022-10-31T21:57:39.952Z,100879.38
2022-10-31T22:00:09.017Z,100877.59
2022-10-31T22:02:36.368Z,100884.75
2022-10-31T22:05:03.393Z,100876.97
2022-10-31T22:07:32.160Z,100868.56
2022-10-31T22:09:58.667Z,100872.03
2022-10-31T22:12:25.200Z,100869.50
2022-10-31T22:14:51.738Z,100860.69
2022-10-31T22:17:18.392Z,100857.56
2022-10-31T22:19:44.906Z,100856.63
2022-10-31T22:22:13.164Z,100856.28
2022-10-31T22:24:39.658Z,100856.50
2022-10-31T22:27:06.205Z,100850.59
2022-10-31T22:29:32.774Z,100851.66
2022-10-31T22:32:00.662Z,100853.44
2022-10-31T22:34:28.411Z,100842.84
2022-10-31T22:36:56.202Z,100847.25
2022-10-31T22:39:22.768Z,100833.41
2022-10-31T22:41:49.245Z,100840.22
2022-10-31T22:44:15.742Z,100840.78
2022-10-31T22:46:42.263Z,100838.25
2022-10-31T22:49:14.738Z,100832.06
2022-10-31T22:51:42.316Z,100824.94
2022-10-31T22:54:12.738Z,100830.16
2022-10-31T22:56:39.295Z,100831.41
2022-10-31T22:59:06.344Z,100825.44
2022-10-31T23:01:34.237Z,100821.97
2022-10-31T23:04:01.210Z,100821.03
2022-10-31T23:06:32.518Z,100824.38
2022-10-31T23:09:01.105Z,100827.75
2022-10-31T23:11:37.688Z,100818.72
2022-10-31T23:14:15.936Z,100825.47
2022-10-31T23:16:49.765Z,100840.38
2022-10-31T23:19:25.043Z,100833.22
2022-10-31T23:22:03.075Z,100827.69
2022-10-31T23:24:37.693Z,100826.91
2022-10-31T23:27:10.618Z,100830.31
2022-10-31T23:29:49.192Z,100822.22
2022-10-31T23:32:27.663Z,100826.72
2022-10-31T23:34:59.065Z,100816.84
2022-10-31T23:37:28.654Z,100806.47
2022-10-31T23:39:55.420Z,100817.06
2022-10-31T23:42:22.926Z,100816.97
2022-10-31T23:44:49.838Z,100815.19
2022-10-31T23:47:19.019Z,100817.69
2022-10-31T23:49:45.695Z,100821.28
2022-10-31T23:52:13.375Z,100817.69
2022-10-31T23:54:40.369Z,100819.69
2022-10-31T23:57:07.060Z,100814.56
2022-10-31T23:59:33.911Z,100815.41
